Time,TemperatureF,DewpointF,PressureIn,WindDirection,WindDirectionDegrees,WindSpeedMPH,WindSpeedGustMPH,Humidity,HourlyPrecipIn,Conditions,Clouds,dailyrainin,SoftwareType,DateUTC
2013-05-17 00:01:00,58.3,54.5,29.83,North,-999,-999.0,-999.0,87,0.00,,,0.00,tws,2013-05-17 04:01:00,
2013-05-17 00:06:00,58.1,54.3,29.83,North,-999,-999.0,-999.0,87,0.00,,,0.00,tws,2013-05-17 04:06:00,
2013-05-17 00:11:00,57.9,54.2,29.83,North,-999,-999.0,-999.0,87,0.00,,,0.00,tws,2013-05-17 04:11:00,
2013-05-17 00:16:00,57.7,54.2,29.83,North,-999,-999.0,-999.0,87,0.00,,,0.00,tws,2013-05-17 04:16:00,
2013-05-17 00:21:00,57.6,54.2,29.83,North,-999,-999.0,-999.0,88,0.00,,,0.00,tws,2013-05-17 04:21:00,
2013-05-17 00:26:00,57.4,54.2,29.83,North,-999,-999.0,-999.0,88,0.00,,,0.00,tws,2013-05-17 04:26:00,
2013-05-17 00:31:00,57.2,54.1,29.83,North,-999,-999.0,-999.0,89,0.00,,,0.00,tws,2013-05-17 04:31:00,
2013-05-17 00:36:00,57.1,54.0,29.83,North,-999,-999.0,-999.0,89,0.00,,,0.00,tws,2013-05-17 04:36:00,
2013-05-17 00:41:00,57.1,54.0,29.83,North,-999,-999.0,-999.0,89,0.00,,,0.00,tws,2013-05-17 04:41:00,
2013-05-17 00:46:00,57.0,54.1,29.83,North,-999,-999.0,-999.0,90,0.00,,,0.00,tws,2013-05-17 04:46:00,
2013-05-17 00:51:00,57.0,54.2,29.82,North,-999,-999.0,-999.0,90,0.00,,,0.00,tws,2013-05-17 04:51:00,
2013-05-17 00:56:00,57.0,54.2,29.82,North,-999,-999.0,-999.0,90,0.00,,,0.00,tws,2013-05-17 04:56:00,
2013-05-17 01:01:00,56.9,54.1,29.82,North,-999,-999.0,-999.0,90,0.00,,,0.00,tws,2013-05-17 05:01:00,
2013-05-17 01:06:00,56.7,54.1,29.82,North,-999,-999.0,-999.0,90,0.00,,,0.00,tws,2013-05-17 05:06:00,
2013-05-17 01:11:00,56.5,54.0,29.82,North,-999,-999.0,-999.0,91,0.00,,,0.00,tws,2013-05-17 05:11:00,
2013-05-17 01:16:00,56.4,53.9,29.82,North,-999,-999.0,-999.0,91,0.00,,,0.00,tws,2013-05-17 05:16:00,
2013-05-17 01:21:00,56.4,53.9,29.82,North,-999,-999.0,-999.0,91,0.00,,,0.00,tws,2013-05-17 05:21:00,
2013-05-17 01:26:00,56.3,54.0,29.81,North,-999,-999.0,-999.0,91,0.00,,,0.00,tws,2013-05-17 05:26:00,
2013-05-17 01:31:00,56.3,54.0,29.81,North,-999,-999.0,-999.0,92,0.00,,,0.00,tws,2013-05-17 05:31:00,
2013-05-17 01:36:00,56.1,53.8,29.81,North,-999,-999.0,-999.0,91,0.00,,,0.00,tws,2013-05-17 05:36:00,
2013-05-17 01:41:00,55.9,53.7,29.81,North,-999,-999.0,-999.0,91,0.00,,,0.00,tws,2013-05-17 05:41:00,
2013-05-17 01:46:00,55.8,53.6,29.82,North,-999,-999.0,-999.0,92,0.00,,,0.00,tws,2013-05-17 05:46:00,
2013-05-17 01:51:00,55.6,53.5,29.81,North,-999,-999.0,-999.0,92,0.00,,,0.00,tws,2013-05-17 05:51:00,
2013-05-17 01:56:00,55.4,53.4,29.81,North,-999,-999.0,-999.0,92,0.00,,,0.00,tws,2013-05-17 05:56:00,
2013-05-17 02:01:00,55.4,53.4,29.81,North,-999,-999.0,-999.0,92,0.00,,,0.00,tws,2013-05-17 06:01:00,
2013-05-17 02:06:00,55.3,53.4,29.81,North,-999,-999.0,-999.0,93,0.00,,,0.00,tws,2013-05-17 06:06:00,
2013-05-17 02:11:00,55.1,53.2,29.81,North,-999,-999.0,-999.0,93,0.00,,,0.00,tws,2013-05-17 06:11:00,
2013-05-17 02:16:00,55.1,53.1,29.82,North,-999,-999.0,-999.0,93,0.00,,,0.00,tws,2013-05-17 06:16:00,
2013-05-17 02:21:00,55.0,53.1,29.81,North,-999,-999.0,-999.0,93,0.00,,,0.00,tws,2013-05-17 06:21:00,
2013-05-17 02:26:00,55.0,53.1,29.81,North,-999,-999.0,-999.0,93,0.00,,,0.00,tws,2013-05-17 06:26:00,
2013-05-17 02:31:00,55.0,53.2,29.82,North,-999,-999.0,-999.0,93,0.00,,,0.00,tws,2013-05-17 06:31:00,
2013-05-17 02:36:00,55.1,53.4,29.82,North,-999,-999.0,-999.0,94,0.00,,,0.00,tws,2013-05-17 06:36:00,
2013-05-17 02:41:00,55.1,53.5,29.82,North,-999,-999.0,-999.0,94,0.00,,,0.00,tws,2013-05-17 06:41:00,
2013-05-17 02:46:00,55.1,53.4,29.82,North,-999,-999.0,-999.0,94,0.00,,,0.00,tws,2013-05-17 06:46:00,
2013-05-17 02:51:00,54.9,53.2,29.82,North,-999,-999.0,-999.0,94,0.00,,,0.00,tws,2013-05-17 06:51:00,
2013-05-17 02:56:00,54.7,53.1,29.82,North,-999,-999.0,-999.0,94,0.00,,,0.00,tws,2013-05-17 06:56:00,
2013-05-17 03:01:00,54.5,53.1,29.82,North,-999,-999.0,-999.0,94,0.00,,,0.00,tws,2013-05-17 07:01:00,
2013-05-17 03:06:00,54.5,53.1,29.82,North,-999,-999.0,-999.0,95,0.00,,,0.00,tws,2013-05-17 07:06:00,
2013-05-17 03:11:00,54.4,53.1,29.82,North,-999,-999.0,-999.0,95,0.00,,,0.00,tws,2013-05-17 07:11:00,
2013-05-17 03:16:00,54.4,53.1,29.82,North,-999,-999.0,-999.0,95,0.00,,,0.00,tws,2013-05-17 07:16:00,
2013-05-17 03:21:00,54.3,53.0,29.82,North,-999,-999.0,-999.0,95,0.00,,,0.00,tws,2013-05-17 07:21:00,
2013-05-17 03:26:00,54.2,53.0,29.82,North,-999,-999.0,-999.0,95,0.00,,,0.00,tws,2013-05-17 07:26:00,
2013-05-17 03:31:00,54.2,53.0,29.82,North,-999,-999.0,-999.0,95,0.00,,,0.00,tws,2013-05-17 07:31:00,
2013-05-17 03:36:00,54.2,52.9,29.82,North,-999,-999.0,-999.0,95,0.00,,,0.00,tws,2013-05-17 07:36:00,
2013-05-17 03:41:00,54.1,52.8,29.82,North,-999,-999.0,-999.0,95,0.00,,,0.00,tws,2013-05-17 07:41:00,
2013-05-17 03:46:00,54.0,52.6,29.82,North,-999,-999.0,-999.0,95,0.00,,,0.00,tws,2013-05-17 07:46:00,
2013-05-17 03:51:00,53.8,52.5,29.83,North,-999,-999.0,-999.0,95,0.00,,,0.00,tws,2013-05-17 07:51:00,
2013-05-17 03:56:00,53.8,52.4,29.83,North,-999,-999.0,-999.0,95,0.00,,,0.00,tws,2013-05-17 07:56:00,
2013-05-17 04:01:00,53.7,52.4,29.83,North,-999,-999.0,-999.0,95,0.00,,,0.00,tws,2013-05-17 08:01:00,
2013-05-17 04:06:00,53.7,52.5,29.83,North,-999,-999.0,-999.0,95,0.00,,,0.00,tws,2013-05-17 08:06:00,
2013-05-17 04:11:00,53.7,52.5,29.83,North,-999,-999.0,-999.0,95,0.00,,,0.00,tws,2013-05-17 08:11:00,
2013-05-17 04:16:00,53.6,52.4,29.83,North,-999,-999.0,-999.0,95,0.00,,,0.00,tws,2013-05-17 08:16:00,
2013-05-17 04:21:00,53.5,52.2,29.83,North,-999,-999.0,-999.0,95,0.00,,,0.00,tws,2013-05-17 08:21:00,
2013-05-17 04:26:00,53.5,52.3,29.83,North,-999,-999.0,-999.0,95,0.00,,,0.00,tws,2013-05-17 08:26:00,
2013-05-17 04:31:00,53.4,52.2,29.83,North,-999,-999.0,-999.0,95,0.00,,,0.00,tws,2013-05-17 08:31:00,
2013-05-17 04:36:00,53.4,52.3,29.83,North,-999,-999.0,-999.0,96,0.00,,,0.00,tws,2013-05-17 08:36:00,
2013-05-17 04:41:00,53.3,52.1,29.84,North,-999,-999.0,-999.0,95,0.00,,,0.00,tws,2013-05-17 08:41:00,
2013-05-17 04:46:00,53.2,52.1,29.84,North,-999,-999.0,-999.0,95,0.00,,,0.00,tws,2013-05-17 08:46:00,
2013-05-17 04:51:00,53.2,52.0,29.84,North,-999,-999.0,-999.0,95,0.00,,,0.00,tws,2013-05-17 08:51:00,
2013-05-17 04:56:00,53.2,52.1,29.84,North,-999,-999.0,-999.0,96,0.00,,,0.00,tws,2013-05-17 08:56:00,
2013-05-17 05:01:00,53.2,52.1,29.84,North,-999,-999.0,-999.0,96,0.00,,,0.00,tws,2013-05-17 09:01:00,
2013-05-17 05:06:00,53.2,52.1,29.84,North,-999,-999.0,-999.0,96,0.00,,,0.00,tws,2013-05-17 09:06:00,
2013-05-17 05:11:00,53.2,52.1,29.84,North,-999,-999.0,-999.0,96,0.00,,,0.00,tws,2013-05-17 09:11:00,
2013-05-17 05:16:00,53.1,52.0,29.84,North,-999,-999.0,-999.0,96,0.00,,,0.00,tws,2013-05-17 09:16:00,
2013-05-17 05:21:00,53.0,51.9,29.84,North,-999,-999.0,-999.0,96,0.00,,,0.00,tws,2013-05-17 09:21:00,
2013-05-17 05:26:00,52.9,51.8,29.84,North,-999,-999.0,-999.0,96,0.00,,,0.00,tws,2013-05-17 09:26:00,
2013-05-17 05:31:00,52.9,51.8,29.84,North,-999,-999.0,-999.0,96,0.00,,,0.00,tws,2013-05-17 09:31:00,
2013-05-17 05:36:00,52.8,51.8,29.85,North,-999,-999.0,-999.0,96,0.00,,,0.00,tws,2013-05-17 09:36:00,
2013-05-17 05:41:00,52.8,51.8,29.85,North,-999,-999.0,-999.0,96,0.00,,,0.00,tws,2013-05-17 09:41:00,
2013-05-17 05:46:00,52.8,51.8,29.84,North,-999,-999.0,-999.0,96,0.00,,,0.00,tws,2013-05-17 09:46:00,
2013-05-17 05:51:00,52.7,51.7,29.85,North,-999,-999.0,-999.0,96,0.00,,,0.00,tws,2013-05-17 09:51:00,
2013-05-17 05:56:00,52.7,51.7,29.84,North,-999,-999.0,-999.0,96,0.00,,,0.00,tws,2013-05-17 09:56:00,
2013-05-17 06:01:00,52.5,51.5,29.85,North,-999,-999.0,-999.0,96,0.00,,,0.00,tws,2013-05-17 10:01:00,
2013-05-17 06:06:00,52.5,51.5,29.85,North,-999,-999.0,-999.0,96,0.00,,,0.00,tws,2013-05-17 10:06:00,
2013-05-17 06:11:00,52.4,51.4,29.85,North,-999,-999.0,-999.0,96,0.00,,,0.00,tws,2013-05-17 10:11:00,
2013-05-17 06:16:00,52.3,51.4,29.85,North,-999,-999.0,-999.0,96,0.00,,,0.00,tws,2013-05-17 10:16:00,
2013-05-17 06:21:00,52.3,51.4,29.86,North,-999,-999.0,-999.0,96,0.00,,,0.00,tws,2013-05-17 10:21:00,
2013-05-17 06:26:00,52.4,51.5,29.86,North,-999,-999.0,-999.0,96,0.00,,,0.00,tws,2013-05-17 10:26:00,
2013-05-17 06:31:00,52.4,51.6,29.86,North,-999,-999.0,-999.0,97,0.00,,,0.00,tws,2013-05-17 10:31:00,
2013-05-17 06:36:00,52.5,51.8,29.86,North,-999,-999.0,-999.0,97,0.00,,,0.00,tws,2013-05-17 10:36:00,
2013-05-17 06:41:00,52.6,51.8,29.86,North,-999,-999.0,-999.0,97,0.00,,,0.00,tws,2013-05-17 10:41:00,
2013-05-17 06:46:00,52.7,51.9,29.86,North,-999,-999.0,-999.0,97,0.00,,,0.00,tws,2013-05-17 10:46:00,
2013-05-17 06:51:00,52.8,52.1,29.87,North,-999,-999.0,-999.0,97,0.00,,,0.00,tws,2013-05-17 10:51:00,
2013-05-17 06:56:00,53.0,52.3,29.87,North,-999,-999.0,-999.0,97,0.00,,,0.00,tws,2013-05-17 10:56:00,
2013-05-17 07:01:00,53.2,52.4,29.87,North,-999,-999.0,-999.0,97,0.00,,,0.00,tws,2013-05-17 11:01:00,
2013-05-17 07:06:00,53.4,52.7,29.87,North,-999,-999.0,-999.0,97,0.00,,,0.00,tws,2013-05-17 11:06:00,
2013-05-17 07:11:00,53.6,53.0,29.87,North,-999,-999.0,-999.0,97,0.00,,,0.00,tws,2013-05-17 11:11:00,
2013-05-17 07:16:00,53.9,53.3,29.87,North,-999,-999.0,-999.0,97,0.00,,,0.00,tws,2013-05-17 11:16:00,
2013-05-17 07:21:00,54.2,53.5,29.87,North,-999,-999.0,-999.0,97,0.00,,,0.00,tws,2013-05-17 11:21:00,
2013-05-17 07:26:00,54.4,53.7,29.87,North,-999,-999.0,-999.0,97,0.00,,,0.00,tws,2013-05-17 11:26:00,
2013-05-17 07:31:00,54.7,54.0,29.87,North,-999,-999.0,-999.0,97,0.00,,,0.00,tws,2013-05-17 11:31:00,
2013-05-17 07:36:00,54.9,54.2,29.87,North,-999,-999.0,-999.0,97,0.00,,,0.00,tws,2013-05-17 11:36:00,
2013-05-17 07:41:00,55.3,54.6,29.87,North,-999,-999.0,-999.0,97,0.00,,,0.00,tws,2013-05-17 11:41:00,
2013-05-17 07:46:00,55.6,54.9,29.88,North,-999,-999.0,-999.0,97,0.00,,,0.00,tws,2013-05-17 11:46:00,
2013-05-17 07:51:00,55.9,55.2,29.88,North,-999,-999.0,-999.0,97,0.00,,,0.00,tws,2013-05-17 11:51:00,
2013-05-17 07:56:00,56.2,55.5,29.88,North,-999,-999.0,-999.0,97,0.00,,,0.00,tws,2013-05-17 11:56:00,
2013-05-17 08:01:00,56.5,55.7,29.88,North,-999,-999.0,-999.0,97,0.00,,,0.00,tws,2013-05-17 12:01:00,
2013-05-17 08:06:00,56.7,55.9,29.88,North,-999,-999.0,-999.0,97,0.00,,,0.00,tws,2013-05-17 12:06:00,
2013-05-17 08:11:00,57.0,56.1,29.89,North,-999,-999.0,-999.0,96,0.00,,,0.00,tws,2013-05-17 12:11:00,
2013-05-17 08:16:00,57.2,56.3,29.89,North,-999,-999.0,-999.0,96,0.00,,,0.00,tws,2013-05-17 12:16:00,
2013-05-17 08:21:00,57.5,56.6,29.89,North,-999,-999.0,-999.0,96,0.00,,,0.00,tws,2013-05-17 12:21:00,
2013-05-17 08:26:00,57.8,56.7,29.89,North,-999,-999.0,-999.0,96,0.00,,,0.00,tws,2013-05-17 12:26:00,
2013-05-17 08:31:00,58.0,56.8,29.89,North,-999,-999.0,-999.0,95,0.00,,,0.00,tws,2013-05-17 12:31:00,
2013-05-17 08:36:00,58.2,56.9,29.89,North,-999,-999.0,-999.0,95,0.00,,,0.00,tws,2013-05-17 12:36:00,
2013-05-17 08:41:00,58.4,57.0,29.89,North,-999,-999.0,-999.0,95,0.00,,,0.00,tws,2013-05-17 12:41:00,
2013-05-17 08:46:00,58.5,57.0,29.89,North,-999,-999.0,-999.0,94,0.00,,,0.00,tws,2013-05-17 12:46:00,
2013-05-17 08:51:00,58.8,57.0,29.89,North,-999,-999.0,-999.0,93,0.00,,,0.00,tws,2013-05-17 12:51:00,
2013-05-17 08:56:00,59.0,57.0,29.89,North,-999,-999.0,-999.0,93,0.00,,,0.00,tws,2013-05-17 12:56:00,
2013-05-17 09:01:00,59.4,57.3,29.89,North,-999,-999.0,-999.0,92,0.00,,,0.00,tws,2013-05-17 13:01:00,
2013-05-17 09:06:00,59.7,57.6,29.89,North,-999,-999.0,-999.0,92,0.00,,,0.00,tws,2013-05-17 13:06:00,
2013-05-17 09:11:00,60.1,57.9,29.89,North,-999,-999.0,-999.0,92,0.00,,,0.00,tws,2013-05-17 13:11:00,
2013-05-17 09:16:00,60.4,58.0,29.89,North,-999,-999.0,-999.0,91,0.00,,,0.00,tws,2013-05-17 13:16:00,
2013-05-17 09:21:00,60.8,58.1,29.89,North,-999,-999.0,-999.0,90,0.00,,,0.00,tws,2013-05-17 13:21:00,
2013-05-17 09:26:00,61.2,58.0,29.89,North,-999,-999.0,-999.0,89,0.00,,,0.00,tws,2013-05-17 13:26:00,
2013-05-17 09:31:00,61.7,58.3,29.89,North,-999,-999.0,-999.0,88,0.00,,,0.00,tws,2013-05-17 13:31:00,
2013-05-17 09:36:00,62.3,58.7,29.89,North,-999,-999.0,-999.0,87,0.00,,,0.00,tws,2013-05-17 13:36:00,
2013-05-17 09:41:00,63.2,59.2,29.89,North,-999,-999.0,-999.0,86,0.00,,,0.00,tws,2013-05-17 13:41:00,
2013-05-17 09:46:00,63.9,59.1,29.89,North,-999,-999.0,-999.0,84,0.00,,,0.00,tws,2013-05-17 13:46:00,
2013-05-17 09:51:00,64.7,59.7,29.89,North,-999,-999.0,-999.0,83,0.00,,,0.00,tws,2013-05-17 13:51:00,
2013-05-17 09:56:00,65.4,60.1,29.89,North,-999,-999.0,-999.0,82,0.00,,,0.00,tws,2013-05-17 13:56:00,
2013-05-17 10:01:00,66.2,60.4,29.89,North,-999,-999.0,-999.0,81,0.00,,,0.00,tws,2013-05-17 14:01:00,
2013-05-17 10:06:00,66.8,60.6,29.89,North,-999,-999.0,-999.0,80,0.00,,,0.00,tws,2013-05-17 14:06:00,
2013-05-17 10:11:00,67.1,60.4,29.89,North,-999,-999.0,-999.0,79,0.00,,,0.00,tws,2013-05-17 14:11:00,
2013-05-17 10:16:00,67.4,60.5,29.89,North,-999,-999.0,-999.0,78,0.00,,,0.00,tws,2013-05-17 14:16:00,
2013-05-17 10:21:00,67.7,60.3,29.89,North,-999,-999.0,-999.0,76,0.00,,,0.00,tws,2013-05-17 14:21:00,
2013-05-17 10:26:00,67.8,60.1,29.89,North,-999,-999.0,-999.0,76,0.00,,,0.00,tws,2013-05-17 14:26:00,
2013-05-17 10:31:00,68.0,59.8,29.89,North,-999,-999.0,-999.0,74,0.00,,,0.00,tws,2013-05-17 14:31:00,
2013-05-17 10:36:00,68.3,60.0,29.89,North,-999,-999.0,-999.0,74,0.00,,,0.00,tws,2013-05-17 14:36:00,
2013-05-17 10:41:00,68.8,59.9,29.89,North,-999,-999.0,-999.0,72,0.00,,,0.00,tws,2013-05-17 14:41:00,
2013-05-17 10:46:00,69.2,59.7,29.89,North,-999,-999.0,-999.0,71,0.00,,,0.00,tws,2013-05-17 14:46:00,
2013-05-17 10:51:00,69.6,59.2,29.89,North,-999,-999.0,-999.0,69,0.00,,,0.00,tws,2013-05-17 14:51:00,
2013-05-17 10:56:00,70.0,59.1,29.89,North,-999,-999.0,-999.0,67,0.00,,,0.00,tws,2013-05-17 14:56:00,
2013-05-17 11:01:00,70.2,58.9,29.89,North,-999,-999.0,-999.0,67,0.00,,,0.00,tws,2013-05-17 15:01:00,
2013-05-17 11:06:00,70.4,59.6,29.89,North,-999,-999.0,-999.0,68,0.00,,,0.00,tws,2013-05-17 15:06:00,
2013-05-17 11:11:00,71.3,60.4,29.89,North,-999,-999.0,-999.0,68,0.00,,,0.00,tws,2013-05-17 15:11:00,
2013-05-17 11:16:00,71.9,60.2,29.89,North,-999,-999.0,-999.0,66,0.00,,,0.00,tws,2013-05-17 15:16:00,
2013-05-17 11:21:00,72.0,60.2,29.89,North,-999,-999.0,-999.0,66,0.00,,,0.00,tws,2013-05-17 15:21:00,
2013-05-17 11:26:00,71.9,60.3,29.89,North,-999,-999.0,-999.0,66,0.00,,,0.00,tws,2013-05-17 15:26:00,
2013-05-17 11:31:00,71.7,60.5,29.89,North,-999,-999.0,-999.0,67,0.00,,,0.00,tws,2013-05-17 15:31:00,
2013-05-17 11:36:00,71.6,60.1,29.89,North,-999,-999.0,-999.0,66,0.00,,,0.00,tws,2013-05-17 15:36:00,
2013-05-17 11:41:00,71.5,60.1,29.89,North,-999,-999.0,-999.0,66,0.00,,,0.00,tws,2013-05-17 15:41:00,
2013-05-17 11:46:00,71.5,59.4,29.89,North,-999,-999.0,-999.0,65,0.00,,,0.00,tws,2013-05-17 15:46:00,
2013-05-17 11:51:00,71.5,59.4,29.89,North,-999,-999.0,-999.0,65,0.00,,,0.00,tws,2013-05-17 15:51:00,
2013-05-17 11:56:00,71.8,59.8,29.89,North,-999,-999.0,-999.0,65,0.00,,,0.00,tws,2013-05-17 15:56:00,
2013-05-17 12:01:00,72.6,59.9,29.89,North,-999,-999.0,-999.0,64,0.00,,,0.00,tws,2013-05-17 16:01:00,
2013-05-17 12:06:00,73.4,59.6,29.88,North,-999,-999.0,-999.0,61,0.00,,,0.00,tws,2013-05-17 16:06:00,
2013-05-17 12:11:00,74.2,60.2,29.88,North,-999,-999.0,-999.0,61,0.00,,,0.00,tws,2013-05-17 16:11:00,
2013-05-17 12:16:00,74.5,60.1,29.88,North,-999,-999.0,-999.0,60,0.00,,,0.00,tws,2013-05-17 16:16:00,
2013-05-17 12:21:00,74.3,59.2,29.87,North,-999,-999.0,-999.0,58,0.00,,,0.00,tws,2013-05-17 16:21:00,
2013-05-17 12:26:00,74.3,59.6,29.87,North,-999,-999.0,-999.0,59,0.00,,,0.00,tws,2013-05-17 16:26:00,
2013-05-17 12:31:00,74.2,59.7,29.87,North,-999,-999.0,-999.0,60,0.00,,,0.00,tws,2013-05-17 16:31:00,
2013-05-17 12:36:00,74.1,59.8,29.87,North,-999,-999.0,-999.0,60,0.00,,,0.00,tws,2013-05-17 16:36:00,
2013-05-17 12:41:00,74.2,59.1,29.87,North,-999,-999.0,-999.0,58,0.00,,,0.00,tws,2013-05-17 16:41:00,
2013-05-17 12:46:00,74.5,59.3,29.87,North,-999,-999.0,-999.0,58,0.00,,,0.00,tws,2013-05-17 16:46:00,
2013-05-17 12:51:00,74.8,59.5,29.87,North,-999,-999.0,-999.0,58,0.00,,,0.00,tws,2013-05-17 16:51:00,
2013-05-17 12:56:00,75.2,59.8,29.87,North,-999,-999.0,-999.0,58,0.00,,,0.00,tws,2013-05-17 16:56:00,
2013-05-17 13:01:00,75.6,59.7,29.87,North,-999,-999.0,-999.0,57,0.00,,,0.00,tws,2013-05-17 17:01:00,
2013-05-17 13:06:00,75.9,59.9,29.87,North,-999,-999.0,-999.0,57,0.00,,,0.00,tws,2013-05-17 17:06:00,
2013-05-17 13:11:00,76.0,60.1,29.87,North,-999,-999.0,-999.0,57,0.00,,,0.00,tws,2013-05-17 17:11:00,
2013-05-17 13:16:00,75.8,59.3,29.87,North,-999,-999.0,-999.0,56,0.00,,,0.00,tws,2013-05-17 17:16:00,
2013-05-17 13:21:00,75.7,59.5,29.87,North,-999,-999.0,-999.0,56,0.00,,,0.00,tws,2013-05-17 17:21:00,
2013-05-17 13:26:00,75.5,59.3,29.87,North,-999,-999.0,-999.0,56,0.00,,,0.00,tws,2013-05-17 17:26:00,
2013-05-17 13:31:00,75.1,58.9,29.87,North,-999,-999.0,-999.0,56,0.00,,,0.00,tws,2013-05-17 17:31:00,
2013-05-17 13:36:00,74.8,59.3,29.87,North,-999,-999.0,-999.0,57,0.00,,,0.00,tws,2013-05-17 17:36:00,
2013-05-17 13:41:00,74.6,59.2,29.86,North,-999,-999.0,-999.0,58,0.00,,,0.00,tws,2013-05-17 17:41:00,
2013-05-17 13:46:00,74.9,59.5,29.86,North,-999,-999.0,-999.0,58,0.00,,,0.00,tws,2013-05-17 17:46:00,
2013-05-17 13:51:00,75.2,59.7,29.86,North,-999,-999.0,-999.0,58,0.00,,,0.00,tws,2013-05-17 17:51:00,
2013-05-17 13:56:00,75.5,59.5,29.86,North,-999,-999.0,-999.0,57,0.00,,,0.00,tws,2013-05-17 17:56:00,
2013-05-17 14:01:00,75.9,59.7,29.86,North,-999,-999.0,-999.0,56,0.00,,,0.00,tws,2013-05-17 18:01:00,
2013-05-17 14:06:00,76.3,59.8,29.86,North,-999,-999.0,-999.0,56,0.00,,,0.00,tws,2013-05-17 18:06:00,
2013-05-17 14:11:00,76.8,59.9,29.86,North,-999,-999.0,-999.0,55,0.00,,,0.00,tws,2013-05-17 18:11:00,
2013-05-17 14:16:00,77.7,60.6,29.86,North,-999,-999.0,-999.0,55,0.00,,,0.00,tws,2013-05-17 18:16:00,
2013-05-17 14:21:00,78.2,60.6,29.86,North,-999,-999.0,-999.0,54,0.00,,,0.00,tws,2013-05-17 18:21:00,
2013-05-17 14:26:00,78.4,60.4,29.86,North,-999,-999.0,-999.0,53,0.00,,,0.00,tws,2013-05-17 18:26:00,
2013-05-17 14:31:00,78.3,59.8,29.86,North,-999,-999.0,-999.0,52,0.00,,,0.00,tws,2013-05-17 18:31:00,
2013-05-17 14:36:00,78.1,59.6,29.86,North,-999,-999.0,-999.0,52,0.00,,,0.00,tws,2013-05-17 18:36:00,
2013-05-17 14:41:00,78.4,60.4,29.86,North,-999,-999.0,-999.0,53,0.00,,,0.00,tws,2013-05-17 18:41:00,
2013-05-17 14:46:00,78.5,60.1,29.85,North,-999,-999.0,-999.0,52,0.00,,,0.00,tws,2013-05-17 18:46:00,
2013-05-17 14:51:00,78.2,59.6,29.85,North,-999,-999.0,-999.0,52,0.00,,,0.00,tws,2013-05-17 18:51:00,
2013-05-17 14:56:00,77.7,59.4,29.85,North,-999,-999.0,-999.0,52,0.00,,,0.00,tws,2013-05-17 18:56:00,
2013-05-17 15:01:00,76.9,58.7,29.85,North,-999,-999.0,-999.0,52,0.00,,,0.00,tws,2013-05-17 19:01:00,
2013-05-17 15:06:00,76.4,59.0,29.85,North,-999,-999.0,-999.0,54,0.00,,,0.00,tws,2013-05-17 19:06:00,
2013-05-17 15:11:00,76.1,59.0,29.84,North,-999,-999.0,-999.0,54,0.00,,,0.00,tws,2013-05-17 19:11:00,
2013-05-17 15:16:00,76.0,59.1,29.84,North,-999,-999.0,-999.0,55,0.00,,,0.00,tws,2013-05-17 19:16:00,
2013-05-17 15:21:00,76.5,59.8,29.84,North,-999,-999.0,-999.0,55,0.00,,,0.00,tws,2013-05-17 19:21:00,
2013-05-17 15:26:00,77.4,60.4,29.84,North,-999,-999.0,-999.0,55,0.00,,,0.00,tws,2013-05-17 19:26:00,
2013-05-17 15:31:00,78.2,60.8,29.84,North,-999,-999.0,-999.0,54,0.00,,,0.00,tws,2013-05-17 19:31:00,
2013-05-17 15:36:00,78.6,60.9,29.84,North,-999,-999.0,-999.0,53,0.00,,,0.00,tws,2013-05-17 19:36:00,
2013-05-17 15:41:00,78.8,60.9,29.84,North,-999,-999.0,-999.0,53,0.00,,,0.00,tws,2013-05-17 19:41:00,
2013-05-17 15:46:00,78.3,59.6,29.84,North,-999,-999.0,-999.0,52,0.00,,,0.00,tws,2013-05-17 19:46:00,
2013-05-17 15:51:00,77.4,59.4,29.84,North,-999,-999.0,-999.0,53,0.00,,,0.00,tws,2013-05-17 19:51:00,
2013-05-17 15:56:00,76.6,59.0,29.84,North,-999,-999.0,-999.0,53,0.00,,,0.00,tws,2013-05-17 19:56:00,
2013-05-17 16:01:00,76.3,59.3,29.83,North,-999,-999.0,-999.0,55,0.00,,,0.00,tws,2013-05-17 20:01:00,
2013-05-17 16:06:00,76.1,59.4,29.84,North,-999,-999.0,-999.0,55,0.00,,,0.00,tws,2013-05-17 20:06:00,
2013-05-17 16:11:00,75.8,59.0,29.83,North,-999,-999.0,-999.0,55,0.00,,,0.00,tws,2013-05-17 20:11:00,
2013-05-17 16:16:00,75.5,58.6,29.83,North,-999,-999.0,-999.0,55,0.00,,,0.00,tws,2013-05-17 20:16:00,
2013-05-17 16:21:00,75.3,58.8,29.83,North,-999,-999.0,-999.0,56,0.00,,,0.00,tws,2013-05-17 20:21:00,
2013-05-17 16:26:00,75.4,59.4,29.83,North,-999,-999.0,-999.0,57,0.00,,,0.00,tws,2013-05-17 20:26:00,
2013-05-17 16:31:00,75.8,59.6,29.83,North,-999,-999.0,-999.0,56,0.00,,,0.00,tws,2013-05-17 20:31:00,
2013-05-17 16:36:00,76.2,59.7,29.83,North,-999,-999.0,-999.0,56,0.00,,,0.00,tws,2013-05-17 20:36:00,
2013-05-17 16:41:00,76.1,59.9,29.83,North,-999,-999.0,-999.0,56,0.00,,,0.00,tws,2013-05-17 20:41:00,
2013-05-17 16:46:00,75.7,59.5,29.83,North,-999,-999.0,-999.0,56,0.00,,,0.00,tws,2013-05-17 20:46:00,
2013-05-17 16:51:00,75.3,59.0,29.83,North,-999,-999.0,-999.0,56,0.00,,,0.00,tws,2013-05-17 20:51:00,
2013-05-17 16:56:00,74.9,59.0,29.83,North,-999,-999.0,-999.0,57,0.00,,,0.00,tws,2013-05-17 20:56:00,
2013-05-17 17:01:00,74.8,59.5,29.83,North,-999,-999.0,-999.0,58,0.00,,,0.00,tws,2013-05-17 21:01:00,
2013-05-17 17:06:00,74.5,59.2,29.83,North,-999,-999.0,-999.0,58,0.00,,,0.00,tws,2013-05-17 21:06:00,
2013-05-17 17:11:00,74.5,58.6,29.83,North,-999,-999.0,-999.0,57,0.00,,,0.00,tws,2013-05-17 21:11:00,
2013-05-17 17:16:00,74.8,58.0,29.83,North,-999,-999.0,-999.0,55,0.00,,,0.00,tws,2013-05-17 21:16:00,
2013-05-17 17:21:00,75.3,57.6,29.82,North,-999,-999.0,-999.0,53,0.00,,,0.00,tws,2013-05-17 21:21:00,
2013-05-17 17:26:00,75.7,57.7,29.83,North,-999,-999.0,-999.0,53,0.00,,,0.00,tws,2013-05-17 21:26:00,
2013-05-17 17:31:00,75.8,58.1,29.82,North,-999,-999.0,-999.0,53,0.00,,,0.00,tws,2013-05-17 21:31:00,
2013-05-17 17:36:00,75.6,58.3,29.82,North,-999,-999.0,-999.0,54,0.00,,,0.00,tws,2013-05-17 21:36:00,
2013-05-17 17:41:00,75.7,58.5,29.82,North,-999,-999.0,-999.0,54,0.00,,,0.00,tws,2013-05-17 21:41:00,
2013-05-17 17:46:00,76.0,58.5,29.82,North,-999,-999.0,-999.0,54,0.00,,,0.00,tws,2013-05-17 21:46:00,
2013-05-17 17:51:00,75.7,58.4,29.82,North,-999,-999.0,-999.0,54,0.00,,,0.00,tws,2013-05-17 21:51:00,
2013-05-17 17:56:00,75.2,58.1,29.82,North,-999,-999.0,-999.0,54,0.00,,,0.00,tws,2013-05-17 21:56:00,
2013-05-17 18:01:00,74.9,58.4,29.82,North,-999,-999.0,-999.0,55,0.00,,,0.00,tws,2013-05-17 22:01:00,
2013-05-17 18:06:00,75.0,58.7,29.82,North,-999,-999.0,-999.0,56,0.00,,,0.00,tws,2013-05-17 22:06:00,
2013-05-17 18:11:00,75.4,58.8,29.82,North,-999,-999.0,-999.0,55,0.00,,,0.00,tws,2013-05-17 22:11:00,
2013-05-17 18:16:00,75.6,59.2,29.82,North,-999,-999.0,-999.0,56,0.00,,,0.00,tws,2013-05-17 22:16:00,
2013-05-17 18:21:00,75.5,58.4,29.82,North,-999,-999.0,-999.0,54,0.00,,,0.00,tws,2013-05-17 22:21:00,
2013-05-17 18:26:00,75.2,57.8,29.82,North,-999,-999.0,-999.0,54,0.00,,,0.00,tws,2013-05-17 22:26:00,
2013-05-17 18:31:00,74.8,57.1,29.82,North,-999,-999.0,-999.0,53,0.00,,,0.00,tws,2013-05-17 22:31:00,
2013-05-17 18:36:00,74.4,56.8,29.82,North,-999,-999.0,-999.0,53,0.00,,,0.00,tws,2013-05-17 22:36:00,
2013-05-17 18:41:00,74.2,56.7,29.82,North,-999,-999.0,-999.0,54,0.00,,,0.00,tws,2013-05-17 22:41:00,
2013-05-17 18:46:00,74.0,57.2,29.81,North,-999,-999.0,-999.0,55,0.00,,,0.00,tws,2013-05-17 22:46:00,
2013-05-17 18:51:00,73.9,57.7,29.81,North,-999,-999.0,-999.0,56,0.00,,,0.00,tws,2013-05-17 22:51:00,
2013-05-17 18:56:00,74.0,57.8,29.82,North,-999,-999.0,-999.0,56,0.00,,,0.00,tws,2013-05-17 22:56:00,
2013-05-17 19:01:00,74.0,57.1,29.82,North,-999,-999.0,-999.0,55,0.00,,,0.00,tws,2013-05-17 23:01:00,
2013-05-17 19:06:00,73.8,57.4,29.82,North,-999,-999.0,-999.0,55,0.00,,,0.00,tws,2013-05-17 23:06:00,
2013-05-17 19:11:00,73.5,57.3,29.83,North,-999,-999.0,-999.0,56,0.00,,,0.00,tws,2013-05-17 23:11:00,
2013-05-17 19:16:00,73.3,57.2,29.83,North,-999,-999.0,-999.0,56,0.00,,,0.00,tws,2013-05-17 23:16:00,
2013-05-17 19:21:00,73.0,57.3,29.83,North,-999,-999.0,-999.0,57,0.00,,,0.00,tws,2013-05-17 23:21:00,
2013-05-17 19:26:00,72.8,57.6,29.83,North,-999,-999.0,-999.0,58,0.00,,,0.00,tws,2013-05-17 23:26:00,
2013-05-17 19:31:00,72.6,57.9,29.83,North,-999,-999.0,-999.0,59,0.00,,,0.00,tws,2013-05-17 23:31:00,
2013-05-17 19:36:00,72.5,58.5,29.83,North,-999,-999.0,-999.0,61,0.00,,,0.00,tws,2013-05-17 23:36:00,
2013-05-17 19:46:00,72.2,58.8,29.83,North,-999,-999.0,-999.0,62,0.00,,,0.00,tws,2013-05-17 23:46:00,
2013-05-17 19:51:00,72.1,58.8,29.83,North,-999,-999.0,-999.0,62,0.00,,,0.00,tws,2013-05-17 23:51:00,
2013-05-17 19:56:00,72.0,58.8,29.83,North,-999,-999.0,-999.0,62,0.00,,,0.00,tws,2013-05-17 23:56:00,
2013-05-17 20:01:00,71.8,58.8,29.84,North,-999,-999.0,-999.0,63,0.00,,,0.00,tws,2013-05-18 00:01:00,
2013-05-17 20:06:00,71.6,58.8,29.84,North,-999,-999.0,-999.0,63,0.00,,,0.00,tws,2013-05-18 00:06:00,
2013-05-17 20:11:00,71.4,58.9,29.84,North,-999,-999.0,-999.0,64,0.00,,,0.00,tws,2013-05-18 00:11:00,
2013-05-17 20:16:00,71.2,58.8,29.84,North,-999,-999.0,-999.0,64,0.00,,,0.00,tws,2013-05-18 00:16:00,
2013-05-17 20:21:00,71.1,58.8,29.84,North,-999,-999.0,-999.0,64,0.00,,,0.00,tws,2013-05-18 00:21:00,
2013-05-17 20:26:00,70.9,59.1,29.84,North,-999,-999.0,-999.0,65,0.00,,,0.00,tws,2013-05-18 00:26:00,
2013-05-17 20:31:00,70.7,59.2,29.84,North,-999,-999.0,-999.0,66,0.00,,,0.00,tws,2013-05-18 00:31:00,
2013-05-17 20:36:00,70.5,59.1,29.84,North,-999,-999.0,-999.0,66,0.00,,,0.00,tws,2013-05-18 00:36:00,
2013-05-17 20:41:00,70.2,59.0,29.84,North,-999,-999.0,-999.0,67,0.00,,,0.00,tws,2013-05-18 00:41:00,
2013-05-17 20:46:00,69.9,59.0,29.84,North,-999,-999.0,-999.0,67,0.00,,,0.00,tws,2013-05-18 00:46:00,
2013-05-17 20:51:00,69.6,59.0,29.85,North,-999,-999.0,-999.0,68,0.00,,,0.00,tws,2013-05-18 00:51:00,
2013-05-17 20:56:00,69.4,59.2,29.84,North,-999,-999.0,-999.0,69,0.00,,,0.00,tws,2013-05-18 00:56:00,
2013-05-17 21:01:00,69.1,59.3,29.85,North,-999,-999.0,-999.0,70,0.00,,,0.00,tws,2013-05-18 01:01:00,
2013-05-17 21:06:00,68.9,59.2,29.85,North,-999,-999.0,-999.0,71,0.00,,,0.00,tws,2013-05-18 01:06:00,
2013-05-17 21:11:00,68.6,59.1,29.85,North,-999,-999.0,-999.0,71,0.00,,,0.00,tws,2013-05-18 01:11:00,
2013-05-17 21:16:00,68.5,58.8,29.86,North,-999,-999.0,-999.0,71,0.00,,,0.00,tws,2013-05-18 01:16:00,
2013-05-17 21:21:00,68.3,58.5,29.86,North,-999,-999.0,-999.0,70,0.00,,,0.00,tws,2013-05-18 01:21:00,
2013-05-17 21:26:00,68.2,58.6,29.86,North,-999,-999.0,-999.0,71,0.00,,,0.00,tws,2013-05-18 01:26:00,
2013-05-17 21:31:00,67.9,58.7,29.86,North,-999,-999.0,-999.0,72,0.00,,,0.00,tws,2013-05-18 01:31:00,
2013-05-17 21:36:00,67.7,58.8,29.86,North,-999,-999.0,-999.0,72,0.00,,,0.00,tws,2013-05-18 01:36:00,
2013-05-17 21:41:00,67.4,58.6,29.86,North,-999,-999.0,-999.0,73,0.00,,,0.00,tws,2013-05-18 01:41:00,
2013-05-17 21:46:00,67.1,58.7,29.86,North,-999,-999.0,-999.0,73,0.00,,,0.00,tws,2013-05-18 01:46:00,
2013-05-17 21:51:00,66.8,58.8,29.86,North,-999,-999.0,-999.0,75,0.00,,,0.00,tws,2013-05-18 01:51:00,
2013-05-17 21:56:00,66.5,58.6,29.87,North,-999,-999.0,-999.0,75,0.00,,,0.00,tws,2013-05-18 01:56:00,
2013-05-17 22:01:00,66.2,58.5,29.87,North,-999,-999.0,-999.0,75,0.00,,,0.00,tws,2013-05-18 02:01:00,
2013-05-17 22:06:00,65.8,58.2,29.87,North,-999,-999.0,-999.0,76,0.00,,,0.00,tws,2013-05-18 02:06:00,
2013-05-17 22:11:00,65.6,58.2,29.87,North,-999,-999.0,-999.0,76,0.00,,,0.00,tws,2013-05-18 02:11:00,
2013-05-17 22:16:00,65.3,58.3,29.87,North,-999,-999.0,-999.0,77,0.00,,,0.00,tws,2013-05-18 02:16:00,
2013-05-17 22:21:00,65.1,58.2,29.87,North,-999,-999.0,-999.0,78,0.00,,,0.00,tws,2013-05-18 02:21:00,
2013-05-17 22:26:00,65.0,58.4,29.87,North,-999,-999.0,-999.0,78,0.00,,,0.00,tws,2013-05-18 02:26:00,
2013-05-17 22:31:00,64.8,58.4,29.87,North,-999,-999.0,-999.0,79,0.00,,,0.00,tws,2013-05-18 02:31:00,
2013-05-17 22:36:00,64.6,58.4,29.88,North,-999,-999.0,-999.0,80,0.00,,,0.00,tws,2013-05-18 02:36:00,
2013-05-17 22:41:00,64.4,58.3,29.88,North,-999,-999.0,-999.0,80,0.00,,,0.00,tws,2013-05-18 02:41:00,
2013-05-17 22:46:00,64.4,58.4,29.88,North,-999,-999.0,-999.0,80,0.00,,,0.00,tws,2013-05-18 02:46:00,
2013-05-17 22:51:00,64.3,58.4,29.88,North,-999,-999.0,-999.0,81,0.00,,,0.00,tws,2013-05-18 02:51:00,
2013-05-17 22:56:00,64.2,58.5,29.88,North,-999,-999.0,-999.0,81,0.00,,,0.00,tws,2013-05-18 02:56:00,
2013-05-17 23:01:00,64.1,58.4,29.88,North,-999,-999.0,-999.0,81,0.00,,,0.00,tws,2013-05-18 03:01:00,
2013-05-17 23:06:00,64.0,58.2,29.89,North,-999,-999.0,-999.0,81,0.00,,,0.00,tws,2013-05-18 03:06:00,
2013-05-17 23:11:00,63.9,58.1,29.89,North,-999,-999.0,-999.0,81,0.00,,,0.00,tws,2013-05-18 03:11:00,
2013-05-17 23:16:00,63.8,58.0,29.89,North,-999,-999.0,-999.0,81,0.00,,,0.00,tws,2013-05-18 03:16:00,
2013-05-17 23:21:00,63.7,57.9,29.88,North,-999,-999.0,-999.0,81,0.00,,,0.00,tws,2013-05-18 03:21:00,
2013-05-17 23:26:00,63.5,57.8,29.88,North,-999,-999.0,-999.0,81,0.00,,,0.00,tws,2013-05-18 03:26:00,
2013-05-17 23:31:00,63.4,57.6,29.88,North,-999,-999.0,-999.0,81,0.00,,,0.00,tws,2013-05-18 03:31:00,
2013-05-17 23:36:00,63.4,57.6,29.88,North,-999,-999.0,-999.0,81,0.00,,,0.00,tws,2013-05-18 03:36:00,
2013-05-17 23:41:00,63.3,57.6,29.88,North,-999,-999.0,-999.0,81,0.00,,,0.00,tws,2013-05-18 03:41:00,
2013-05-17 23:46:00,63.2,57.6,29.89,North,-999,-999.0,-999.0,81,0.00,,,0.00,tws,2013-05-18 03:46:00,
2013-05-17 23:51:00,63.0,57.7,29.88,North,-999,-999.0,-999.0,82,0.00,,,0.00,tws,2013-05-18 03:51:00,
2013-05-17 23:56:00,63.0,57.6,29.88,North,-999,-999.0,-999.0,82,0.00,,,0.00,tws,2013-05-18 03:56:00,